sensor_id;sensor_type;location;lat;lon;timestamp;pressure;altitude;pressure_sealevel;temperature;humidity
44457;BME280;30159;49.316;8.558;2022-10-16T00:01:39;100155.31;;;17.78;100.00
44457;BME280;30159;49.316;8.558;2022-10-16T00:04:05;100151.34;;;17.75;100.00
44457;BME280;30159;49.316;8.558;2022-10-16T00:06:32;100162.13;;;17.72;100.00
44457;BME280;30159;49.316;8.558;2022-10-16T00:08:59;100168.59;;;17.67;100.00
44457;BME280;30159;49.316;8.558;2022-10-16T00:11:28;100173.56;;;17.65;100.00
44457;BME280;30159;49.316;8.558;2022-10-16T00:13:58;100169.59;;;17.62;100.00
44457;BME280;30159;49.316;8.558;2022-10-16T00:16:25;100169.22;;;17.64;100.00
44457;BME280;30159;49.316;8.558;2022-10-16T00:18:51;100130.47;;;17.37;100.00
44457;BME280;30159;49.316;8.558;2022-10-16T00:21:20;100161.72;;;17.61;100.00
44457;BME280;30159;49.316;8.558;2022-10-16T00:23:50;100157.22;;;17.65;100.00
44457;BME280;30159;49.316;8.558;2022-10-16T00:26:17;100140.22;;;17.59;100.00
44457;BME280;30159;49.316;8.558;2022-10-16T00:28:45;100136.72;;;17.59;100.00
44457;BME280;30159;49.316;8.558;2022-10-16T00:31:14;100145.09;;;17.54;100.00
44457;BME280;30159;49.316;8.558;2022-10-16T00:33:40;100151.34;;;17.54;100.00
44457;BME280;30159;49.316;8.558;2022-10-16T00:36:11;100156.94;;;17.58;100.00
44457;BME280;30159;49.316;8.558;2022-10-16T00:38:38;100158.72;;;17.54;100.00
44457;BME280;30159;49.316;8.558;2022-10-16T00:41:06;100129.97;;;17.35;100.00
44457;BME280;30159;49.316;8.558;2022-10-16T00:43:36;100157.31;;;17.47;100.00
44457;BME280;30159;49.316;8.558;2022-10-16T00:46:07;100169.84;;;17.48;100.00
44457;BME280;30159;49.316;8.558;2022-10-16T00:48:38;100180.28;;;17.46;100.00
44457;BME280;30159;49.316;8.558;2022-10-16T00:51:05;100181.03;;;17.56;100.00
44457;BME280;30159;49.316;8.558;2022-10-16T00:53:32;100182.09;;;17.63;100.00
44457;BME280;30159;49.316;8.558;2022-10-16T00:55:59;100174.31;;;17.74;100.00
44457;BME280;30159;49.316;8.558;2022-10-16T00:58:26;100176.34;;;17.77;100.00
44457;BME280;30159;49.316;8.558;2022-10-16T01:00:52;100174.44;;;17.78;100.00
44457;BME280;30159;49.316;8.558;2022-10-16T01:03:24;100169.31;;;17.76;100.00
44457;BME280;30159;49.316;8.558;2022-10-16T01:05:59;100159.59;;;17.66;100.00
44457;BME280;30159;49.316;8.558;2022-10-16T01:08:34;100169.22;;;17.64;100.00
44457;BME280;30159;49.316;8.558;2022-10-16T01:11:11;100139.09;;;17.39;100.00
44457;BME280;30159;49.316;8.558;2022-10-16T01:13:42;100168.84;;;17.53;100.00
44457;BME280;30159;49.316;8.558;2022-10-16T01:16:13;100180.34;;;17.59;100.00
44457;BME280;30159;49.316;8.558;2022-10-16T01:18:44;100149.34;;;17.42;100.00
44457;BME280;30159;49.316;8.558;2022-10-16T01:21:16;100184.34;;;17.61;100.00
44457;BME280;30159;49.316;8.558;2022-10-16T01:23:54;100180.63;;;17.66;100.00
44457;BME280;30159;49.316;8.558;2022-10-16T01:26:33;100174.47;;;17.69;100.00
44457;BME280;30159;49.316;8.558;2022-10-16T01:29:07;100172.91;;;17.68;100.00
44457;BME280;30159;49.316;8.558;2022-10-16T01:31:37;100179.16;;;17.68;100.00
44457;BME280;30159;49.316;8.558;2022-10-16T01:34:10;100175.63;;;17.68;100.00
44457;BME280;30159;49.316;8.558;2022-10-16T01:36:42;100180.50;;;17.62;100.00
44457;BME280;30159;49.316;8.558;2022-10-16T01:39:12;100183.81;;;17.68;100.00
44457;BME280;30159;49.316;8.558;2022-10-16T01:41:43;100162.41;;;17.58;100.00
44457;BME280;30159;49.316;8.558;2022-10-16T01:44:14;100178.41;;;17.59;100.00
44457;BME280;30159;49.316;8.558;2022-10-16T01:46:45;100179.56;;;17.58;100.00
44457;BME280;30159;49.316;8.558;2022-10-16T01:49:12;100184.75;;;17.51;100.00
44457;BME280;30159;49.316;8.558;2022-10-16T01:51:39;100190.78;;;17.57;100.00
44457;BME280;30159;49.316;8.558;2022-10-16T01:54:09;100145.19;;;17.36;100.00
44457;BME280;30159;49.316;8.558;2022-10-16T01:56:37;100185.00;;;17.58;100.00
44457;BME280;30159;49.316;8.558;2022-10-16T01:59:09;100196.59;;;17.55;100.00
44457;BME280;30159;49.316;8.558;2022-10-16T02:01:39;100196.13;;;17.53;100.00
44457;BME280;30159;49.316;8.558;2022-10-16T02:04:11;100193.50;;;17.57;100.00
44457;BME280;30159;49.316;8.558;2022-10-16T02:06:39;100193.31;;;17.62;100.00
44457;BME280;30159;49.316;8.558;2022-10-16T02:09:06;100192.19;;;17.63;100.00
44457;BME280;30159;49.316;8.558;2022-10-16T02:11:32;100202.63;;;17.61;100.00
44457;BME280;30159;49.316;8.558;2022-10-16T02:14:01;100175.66;;;17.38;100.00
44457;BME280;30159;49.316;8.558;2022-10-16T02:16:33;100162.50;;;17.40;100.00
44457;BME280;30159;49.316;8.558;2022-10-16T02:19:02;100185.94;;;17.62;100.00
44457;BME280;30159;49.316;8.558;2022-10-16T02:21:33;100198.59;;;17.67;100.00
44457;BME280;30159;49.316;8.558;2022-10-16T02:24:05;100185.31;;;17.57;100.00
44457;BME280;30159;49.316;8.558;2022-10-16T02:26:38;100191.13;;;17.55;100.00
44457;BME280;30159;49.316;8.558;2022-10-16T02:29:10;100193.25;;;17.49;100.00
44457;BME280;30159;49.316;8.558;2022-10-16T02:31:41;100195.03;;;17.45;100.00
44457;BME280;30159;49.316;8.558;2022-10-16T02:34:12;100193.16;;;17.37;100.00
44457;BME280;30159;49.316;8.558;2022-10-16T02:36:40;100198.63;;;17.37;100.00
44457;BME280;30159;49.316;8.558;2022-10-16T02:39:08;100196.53;;;17.34;100.00
44457;BME280;30159;49.316;8.558;2022-10-16T02:41:35;100190.81;;;17.27;100.00
44457;BME280;30159;49.316;8.558;2022-10-16T02:44:01;100193.72;;;17.22;100.00
44457;BME280;30159;49.316;8.558;2022-10-16T02:46:28;100193.59;;;17.18;100.00
44457;BME280;30159;49.316;8.558;2022-10-16T02:48:55;100197.13;;;17.19;100.00
44457;BME280;30159;49.316;8.558;2022-10-16T02:51:22;100195.97;;;17.20;100.00
44457;BME280;30159;49.316;8.558;2022-10-16T02:53:49;100196.78;;;17.20;100.00
44457;BME280;30159;49.316;8.558;2022-10-16T02:56:16;100203.03;;;17.21;100.00
44457;BME280;30159;49.316;8.558;2022-10-16T02:58:42;100204.63;;;17.22;100.00
44457;BME280;30159;49.316;8.558;2022-10-16T03:01:09;100214.72;;;17.21;100.00
44457;BME280;30159;49.316;8.558;2022-10-16T03:03:37;100211.69;;;17.23;100.00
44457;BME280;30159;49.316;8.558;2022-10-16T03:06:04;100218.88;;;17.27;100.00
44457;BME280;30159;49.316;8.558;2022-10-16T03:08:32;100220.94;;;17.31;100.00
44457;BME280;30159;49.316;8.558;2022-10-16T03:10:58;100223.16;;;17.37;100.00
44457;BME280;30159;49.316;8.558;2022-10-16T03:13:25;100227.00;;;17.36;100.00
44457;BME280;30159;49.316;8.558;2022-10-16T03:15:51;100214.09;;;17.45;100.00
44457;BME280;30159;49.316;8.558;2022-10-16T03:18:18;100212.53;;;17.44;100.00
44457;BME280;30159;49.316;8.558;2022-10-16T03:20:45;100209.81;;;17.44;100.00
44457;BME280;30159;49.316;8.558;2022-10-16T03:23:11;100208.66;;;17.45;100.00
44457;BME280;30159;49.316;8.558;2022-10-16T03:25:39;100213.31;;;17.45;100.00
44457;BME280;30159;49.316;8.558;2022-10-16T03:28:06;100207.75;;;17.41;100.00
44457;BME280;30159;49.316;8.558;2022-10-16T03:30:32;100205.00;;;17.41;100.00
44457;BME280;30159;49.316;8.558;2022-10-16T03:32:59;100200.47;;;17.45;100.00
44457;BME280;30159;49.316;8.558;2022-10-16T03:35:25;100189.41;;;17.51;100.00
44457;BME280;30159;49.316;8.558;2022-10-16T03:37:52;100193.13;;;17.46;100.00
44457;BME280;30159;49.316;8.558;2022-10-16T03:40:19;100188.31;;;17.43;100.00
44457;BME280;30159;49.316;8.558;2022-10-16T03:42:46;100188.19;;;17.39;100.00
44457;BME280;30159;49.316;8.558;2022-10-16T03:45:13;100192.41;;;17.28;100.00
44457;BME280;30159;49.316;8.558;2022-10-16T03:47:40;100200.59;;;17.28;100.00
44457;BME280;30159;49.316;8.558;2022-10-16T03:50:08;100201.84;;;17.31;100.00
44457;BME280;30159;49.316;8.558;2022-10-16T03:52:34;100201.84;;;17.31;100.00
44457;BME280;30159;49.316;8.558;2022-10-16T03:55:01;100209.38;;;17.34;100.00
44457;BME280;30159;49.316;8.558;2022-10-16T03:57:27;100210.97;;;17.35;100.00
44457;BME280;30159;49.316;8.558;2022-10-16T03:59:55;100212.72;;;17.39;100.00
44457;BME280;30159;49.316;8.558;2022-10-16T04:02:21;100218.44;;;17.46;100.00
44457;BME280;30159;49.316;8.558;2022-10-16T04:04:48;100211.66;;;17.53;100.00
44457;BME280;30159;49.316;8.558;2022-10-16T04:07:14;100159.16;;;17.14;100.00
44457;BME280;30159;49.316;8.558;2022-10-16T04:09:41;100221.25;;;17.59;100.00
44457;BME280;30159;49.316;8.558;2022-10-16T04:12:08;100218.84;;;17.57;100.00
44457;BME280;30159;49.316;8.558;2022-10-16T04:14:34;100209.75;;;17.53;100.00
44457;BME280;30159;49.316;8.558;2022-10-16T04:17:02;100218.94;;;17.48;100.00
44457;BME280;30159;49.316;8.558;2022-10-16T04:19:28;100215.53;;;17.52;100.00
44457;BME280;30159;49.316;8.558;2022-10-16T04:21:55;100219.91;;;17.44;100.00
44457;BME280;30159;49.316;8.558;2022-10-16T04:24:21;100222.28;;;17.45;100.00
44457;BME280;30159;49.316;8.558;2022-10-16T04:26:48;100169.94;;;17.01;100.00
44457;BME280;30159;49.316;8.558;2022-10-16T04:29:14;100223.94;;;17.38;100.00
44457;BME280;30159;49.316;8.558;2022-10-16T04:31:41;100243.19;;;17.41;100.00
44457;BME280;30159;49.316;8.558;2022-10-16T04:34:09;100251.13;;;17.25;100.00
44457;BME280;30159;49.316;8.558;2022-10-16T04:36:35;100242.16;;;17.25;100.00
44457;BME280;30159;49.316;8.558;2022-10-16T04:39:02;100237.81;;;17.24;100.00
44457;BME280;30159;49.316;8.558;2022-10-16T04:41:28;100234.78;;;17.17;100.00
44457;BME280;30159;49.316;8.558;2022-10-16T04:43:55;100230.94;;;17.18;100.00
44457;BME280;30159;49.316;8.558;2022-10-16T04:46:21;100230.00;;;17.14;100.00
44457;BME280;30159;49.316;8.558;2022-10-16T04:48:48;100244.94;;;17.08;100.00
44457;BME280;30159;49.316;8.558;2022-10-16T04:51:16;100242.88;;;17.04;100.00
44457;BME280;30159;49.316;8.558;2022-10-16T04:53:43;100242.88;;;17.04;100.00
44457;BME280;30159;49.316;8.558;2022-10-16T04:56:10;100235.31;;;17.01;100.00
44457;BME280;30159;49.316;8.558;2022-10-16T04:58:36;100235.00;;;17.03;100.00
44457;BME280;30159;49.316;8.558;2022-10-16T05:01:03;100240.97;;;16.96;100.00
44457;BME280;30159;49.316;8.558;2022-10-16T05:03:30;100231.19;;;16.95;100.00
44457;BME280;30159;49.316;8.558;2022-10-16T05:05:56;100226.72;;;16.91;100.00
44457;BME280;30159;49.316;8.558;2022-10-16T05:08:24;100232.69;;;16.84;100.00
44457;BME280;30159;49.316;8.558;2022-10-16T05:10:51;100237.00;;;16.85;100.00
44457;BME280;30159;49.316;8.558;2022-10-16T05:13:17;100244.19;;;16.90;100.00
44457;BME280;30159;49.316;8.558;2022-10-16T05:15:47;100249.00;;;16.93;100.00
44457;BME280;30159;49.316;8.558;2022-10-16T05:18:14;100249.97;;;16.88;100.00
44457;BME280;30159;49.316;8.558;2022-10-16T05:20:41;100248.22;;;16.83;100.00
44457;BME280;30159;49.316;8.558;2022-10-16T06:38:45;100274.84;;;16.69;100.00
44457;BME280;30159;49.316;8.558;2022-10-16T06:41:13;100286.53;;;16.70;100.00
44457;BME280;30159;49.316;8.558;2022-10-16T06:43:39;100283.63;;;16.75;100.00
44457;BME280;30159;49.316;8.558;2022-10-16T06:46:07;100283.97;;;16.82;100.00
44457;BME280;30159;49.316;8.558;2022-10-16T06:48:36;100291.03;;;16.83;100.00
44457;BME280;30159;49.316;8.558;2022-10-16T06:51:05;100281.72;;;16.84;100.00
44457;BME280;30159;49.316;8.558;2022-10-16T06:53:33;100294.34;;;16.97;100.00
44457;BME280;30159;49.316;8.558;2022-10-16T06:56:08;100283.56;;;17.10;100.00
44457;BME280;30159;49.316;8.558;2022-10-16T06:58:35;100305.47;;;17.22;100.00
44457;BME280;30159;49.316;8.558;2022-10-16T07:01:02;100308.84;;;17.27;100.00
44457;BME280;30159;49.316;8.558;2022-10-16T07:03:28;100317.59;;;17.42;100.00
44457;BME280;30159;49.316;8.558;2022-10-16T07:05:55;100275.47;;;17.31;100.00
44457;BME280;30159;49.316;8.558;2022-10-16T07:08:21;100327.44;;;17.64;100.00
44457;BME280;30159;49.316;8.558;2022-10-16T07:10:48;100338.69;;;17.62;100.00
44457;BME280;30159;49.316;8.558;2022-10-16T07:13:16;100356.44;;;17.77;100.00
44457;BME280;30159;49.316;8.558;2022-10-16T07:15:42;100358.31;;;17.85;100.00
44457;BME280;30159;49.316;8.558;2022-10-16T07:18:09;100361.81;;;17.95;100.00
44457;BME280;30159;49.316;8.558;2022-10-16T07:20:35;100359.00;;;18.12;100.00
44457;BME280;30159;49.316;8.558;2022-10-16T07:23:02;100359.47;;;18.35;100.00
44457;BME280;30159;49.316;8.558;2022-10-16T07:25:29;100366.72;;;18.52;100.00
44457;BME280;30159;49.316;8.558;2022-10-16T07:27:55;100376.81;;;18.60;100.00
44457;BME280;30159;49.316;8.558;2022-10-16T07:30:23;100367.97;;;18.75;100.00
44457;BME280;30159;49.316;8.558;2022-10-16T07:32:50;100359.53;;;18.89;100.00
44457;BME280;30159;49.316;8.558;2022-10-16T07:35:16;100364.00;;;19.06;100.00
44457;BME280;30159;49.316;8.558;2022-10-16T07:37:44;100342.38;;;19.01;100.00
44457;BME280;30159;49.316;8.558;2022-10-16T07:40:11;100374.69;;;19.32;100.00
44457;BME280;30159;49.316;8.558;2022-10-16T07:42:38;100372.31;;;19.43;100.00
44457;BME280;30159;49.316;8.558;2022-10-16T07:45:05;100371.97;;;19.45;100.00
44457;BME280;30159;49.316;8.558;2022-10-16T07:47:33;100383.16;;;19.52;100.00
44457;BME280;30159;49.316;8.558;2022-10-16T07:50:00;100386.44;;;19.57;100.00
44457;BME280;30159;49.316;8.558;2022-10-16T07:52:26;100389.78;;;19.63;100.00
44457;BME280;30159;49.316;8.558;2022-10-16T07:54:53;100401.69;;;19.79;100.00
44457;BME280;30159;49.316;8.558;2022-10-16T07:57:20;100399.97;;;19.87;100.00
44457;BME280;30159;49.316;8.558;2022-10-16T07:59:46;100405.22;;;19.92;100.00
44457;BME280;30159;49.316;8.558;2022-10-16T08:02:13;100410.44;;;19.97;100.00
44457;BME280;30159;49.316;8.558;2022-10-16T08:04:41;100415.03;;;19.93;100.00
44457;BME280;30159;49.316;8.558;2022-10-16T08:07:08;100417.44;;;20.07;100.00
44457;BME280;30159;49.316;8.558;2022-10-16T08:09:34;100402.25;;;20.10;100.00
44457;BME280;30159;49.316;8.558;2022-10-16T08:12:01;100416.84;;;20.14;100.00
44457;BME280;30159;49.316;8.558;2022-10-16T08:14:29;100404.50;;;20.20;100.00
44457;BME280;30159;49.316;8.558;2022-10-16T08:16:56;100405.41;;;20.36;100.00
44457;BME280;30159;49.316;8.558;2022-10-16T08:19:22;100414.19;;;20.42;100.00
44457;BME280;30159;49.316;8.558;2022-10-16T08:21:50;100411.13;;;20.31;100.00
44457;BME280;30159;49.316;8.558;2022-10-16T08:24:17;100411.69;;;20.25;100.00
44457;BME280;30159;49.316;8.558;2022-10-16T08:26:43;100403.03;;;20.10;100.00
44457;BME280;30159;49.316;8.558;2022-10-16T08:29:10;100409.75;;;19.88;100.00
44457;BME280;30159;49.316;8.558;2022-10-16T08:31:36;100418.34;;;19.74;100.00
44457;BME280;30159;49.316;8.558;2022-10-16T08:34:03;100413.53;;;19.71;100.00
44457;BME280;30159;49.316;8.558;2022-10-16T08:36:30;100423.41;;;19.64;100.00
44457;BME280;30159;49.316;8.558;2022-10-16T08:38:57;100419.75;;;19.59;100.00
44457;BME280;30159;49.316;8.558;2022-10-16T08:41:37;100406.84;;;19.35;100.00
44457;BME280;30159;49.316;8.558;2022-10-16T08:44:30;100440.47;;;19.48;100.00
44457;BME280;30159;49.316;8.558;2022-10-16T08:47:08;100404.66;;;19.41;100.00
44457;BME280;30159;49.316;8.558;2022-10-16T08:49:41;100449.56;;;19.86;100.00
44457;BME280;30159;49.316;8.558;2022-10-16T08:52:11;100459.75;;;20.10;100.00
44457;BME280;30159;49.316;8.558;2022-10-16T08:54:43;100458.69;;;20.39;100.00
44457;BME280;30159;49.316;8.558;2022-10-16T08:57:14;100464.06;;;20.60;100.00
44457;BME280;30159;49.316;8.558;2022-10-16T08:59:42;100476.72;;;20.77;100.00
44457;BME280;30159;49.316;8.558;2022-10-16T09:02:23;100424.13;;;20.59;100.00
44457;BME280;30159;49.316;8.558;2022-10-16T09:05:10;100438.09;;;20.82;100.00
44457;BME280;30159;49.316;8.558;2022-10-16T09:07:49;100492.84;;;21.47;100.00
44457;BME280;30159;49.316;8.558;2022-10-16T09:10:31;100484.72;;;21.66;100.00
44457;BME280;30159;49.316;8.558;2022-10-16T09:13:08;100506.56;;;21.47;100.00
44457;BME280;30159;49.316;8.558;2022-10-16T09:15:39;100498.75;;;21.49;100.00
44457;BME280;30159;49.316;8.558;2022-10-16T09:18:16;100507.03;;;21.37;100.00
44457;BME280;30159;49.316;8.558;2022-10-16T09:20:51;100486.97;;;21.20;100.00
44457;BME280;30159;49.316;8.558;2022-10-16T09:23:25;100491.59;;;21.44;100.00
44457;BME280;30159;49.316;8.558;2022-10-16T09:25:55;100499.34;;;21.71;100.00
44457;BME280;30159;49.316;8.558;2022-10-16T09:28:22;100515.84;;;21.86;98.44
44457;BME280;30159;49.316;8.558;2022-10-16T09:30:49;100503.75;;;21.59;98.35
44457;BME280;30159;49.316;8.558;2022-10-16T09:33:19;100532.03;;;21.76;98.53
44457;BME280;30159;49.316;8.558;2022-10-16T09:35:48;100526.69;;;21.67;97.61
44457;BME280;30159;49.316;8.558;2022-10-16T09:38:24;100532.53;;;21.50;99.89
44457;BME280;30159;49.316;8.558;2022-10-16T09:40:52;100532.88;;;21.36;100.00
44457;BME280;30159;49.316;8.558;2022-10-16T09:43:23;100528.53;;;21.35;100.00
44457;BME280;30159;49.316;8.558;2022-10-16T09:45:57;100522.44;;;21.13;99.12
44457;BME280;30159;49.316;8.558;2022-10-16T09:48:27;100523.72;;;21.44;98.54
44457;BME280;30159;49.316;8.558;2022-10-16T09:50:59;100519.19;;;21.64;100.00
44457;BME280;30159;49.316;8.558;2022-10-16T09:53:37;100527.81;;;21.94;98.92
44457;BME280;30159;49.316;8.558;2022-10-16T09:56:04;100531.38;;;22.10;97.11
44457;BME280;30159;49.316;8.558;2022-10-16T09:58:33;100531.41;;;22.26;96.53
44457;BME280;30159;49.316;8.558;2022-10-16T10:01:00;100531.56;;;22.34;98.40
44457;BME280;30159;49.316;8.558;2022-10-16T10:03:35;100534.56;;;22.44;94.17
44457;BME280;30159;49.316;8.558;2022-10-16T10:06:13;100534.66;;;22.32;93.40
44457;BME280;30159;49.316;8.558;2022-10-16T10:08:41;100539.53;;;22.39;96.42
44457;BME280;30159;49.316;8.558;2022-10-16T10:11:18;100533.66;;;22.56;95.42
44457;BME280;30159;49.316;8.558;2022-10-16T10:13:46;100537.72;;;22.62;90.73
44457;BME280;30159;49.316;8.558;2022-10-16T10:16:23;100538.00;;;22.73;88.99
44457;BME280;30159;49.316;8.558;2022-10-16T10:18:58;100535.50;;;22.68;89.69
44457;BME280;30159;49.316;8.558;2022-10-16T10:21:24;100532.13;;;22.59;91.03
44457;BME280;30159;49.316;8.558;2022-10-16T10:23:55;100529.09;;;22.28;92.66
44457;BME280;30159;49.316;8.558;2022-10-16T10:26:24;100528.44;;;22.35;93.48
44457;BME280;30159;49.316;8.558;2022-10-16T10:29:01;100519.47;;;21.91;94.73
44457;BME280;30159;49.316;8.558;2022-10-16T10:31:36;100526.44;;;21.72;96.05
44457;BME280;30159;49.316;8.558;2022-10-16T10:34:26;100523.28;;;21.86;95.97
44457;BME280;30159;49.316;8.558;2022-10-16T10:37:01;100524.88;;;21.87;96.95
44457;BME280;30159;49.316;8.558;2022-10-16T10:39:35;100533.41;;;21.54;97.51
44457;BME280;30159;49.316;8.558;2022-10-16T10:42:12;100520.28;;;21.35;99.05
44457;BME280;30159;49.316;8.558;2022-10-16T10:44:57;100525.44;;;21.08;100.00
44457;BME280;30159;49.316;8.558;2022-10-16T10:47:37;100522.47;;;21.01;100.00
44457;BME280;30159;49.316;8.558;2022-10-16T10:50:14;100514.50;;;20.96;100.00
44457;BME280;30159;49.316;8.558;2022-10-16T10:52:54;100524.44;;;20.88;100.00
44457;BME280;30159;49.316;8.558;2022-10-16T10:55:31;100534.75;;;20.91;100.00
44457;BME280;30159;49.316;8.558;2022-10-16T10:58:19;100521.59;;;20.84;100.00
44457;BME280;30159;49.316;8.558;2022-10-16T11:00:56;100504.50;;;20.75;100.00
44457;BME280;30159;49.316;8.558;2022-10-16T11:03:47;100514.78;;;20.66;100.00
44457;BME280;30159;49.316;8.558;2022-10-16T11:06:18;100520.97;;;20.63;100.00
44457;BME280;30159;49.316;8.558;2022-10-16T11:08:52;100522.31;;;20.69;100.00
44457;BME280;30159;49.316;8.558;2022-10-16T11:11:24;100530.66;;;20.73;100.00
44457;BME280;30159;49.316;8.558;2022-10-16T11:13:56;100520.44;;;20.86;100.00
44457;BME280;30159;49.316;8.558;2022-10-16T11:16:27;100525.47;;;20.96;100.00
44457;BME280;30159;49.316;8.558;2022-10-16T11:18:59;100522.22;;;21.06;100.00
44457;BME280;30159;49.316;8.558;2022-10-16T11:21:33;100525.88;;;21.10;100.00
44457;BME280;30159;49.316;8.558;2022-10-16T11:24:08;100525.59;;;21.27;100.00
44457;BME280;30159;49.316;8.558;2022-10-16T11:26:42;100520.75;;;21.37;100.00
44457;BME280;30159;49.316;8.558;2022-10-16T11:29:13;100486.91;;;21.17;100.00
44457;BME280;30159;49.316;8.558;2022-10-16T11:31:46;100516.06;;;21.50;100.00
44457;BME280;30159;49.316;8.558;2022-10-16T11:34:19;100507.09;;;21.53;99.29
44457;BME280;30159;49.316;8.558;2022-10-16T11:36:52;100510.44;;;21.46;97.18
44457;BME280;30159;49.316;8.558;2022-10-16T11:39:21;100499.16;;;21.35;98.00
44457;BME280;30159;49.316;8.558;2022-10-16T11:41:49;100439.25;;;20.81;98.31
44457;BME280;30159;49.316;8.558;2022-10-16T11:47:15;100509.97;;;21.16;100.00
44457;BME280;30159;49.316;8.558;2022-10-16T11:49:47;100516.13;;;21.25;98.07
44457;BME280;30159;49.316;8.558;2022-10-16T11:52:20;100512.84;;;21.48;98.33
44457;BME280;30159;49.316;8.558;2022-10-16T11:54:52;100515.56;;;21.76;96.61
44457;BME280;30159;49.316;8.558;2022-10-16T11:57:24;100515.50;;;22.20;94.30
44457;BME280;30159;49.316;8.558;2022-10-16T11:59:55;100506.09;;;22.52;92.37
44457;BME280;30159;49.316;8.558;2022-10-16T12:02:40;100515.91;;;23.05;89.55
44457;BME280;30159;49.316;8.558;2022-10-16T12:05:18;100515.25;;;23.31;87.55
44457;BME280;30159;49.316;8.558;2022-10-16T12:07:54;100511.09;;;23.60;86.39
44457;BME280;30159;49.316;8.558;2022-10-16T12:10:25;100513.84;;;23.60;87.27
44457;BME280;30159;49.316;8.558;2022-10-16T12:12:53;100510.47;;;23.28;85.06
44457;BME280;30159;49.316;8.558;2022-10-16T12:15:23;100509.16;;;23.41;85.89
44457;BME280;30159;49.316;8.558;2022-10-16T12:17:52;100494.75;;;23.48;85.31
44457;BME280;30159;49.316;8.558;2022-10-16T12:20:22;100500.06;;;23.80;84.21
44457;BME280;30159;49.316;8.558;2022-10-16T12:22:53;100499.34;;;23.83;85.00
44457;BME280;30159;49.316;8.558;2022-10-16T12:25:23;100495.22;;;23.96;83.18
44457;BME280;30159;49.316;8.558;2022-10-16T12:27:59;100493.00;;;24.05;82.75
44457;BME280;30159;49.316;8.558;2022-10-16T12:30:27;100488.06;;;23.91;82.98
44457;BME280;30159;49.316;8.558;2022-10-16T12:32:57;100492.41;;;24.15;81.50
44457;BME280;30159;49.316;8.558;2022-10-16T12:35:26;100501.94;;;24.22;80.15
44457;BME280;30159;49.316;8.558;2022-10-16T12:37:54;100496.00;;;24.19;79.91
44457;BME280;30159;49.316;8.558;2022-10-16T12:40:32;100481.56;;;24.03;80.91
44457;BME280;30159;49.316;8.558;2022-10-16T12:43:11;100499.28;;;24.29;79.53
44457;BME280;30159;49.316;8.558;2022-10-16T12:45:38;100490.13;;;23.98;79.95
44457;BME280;30159;49.316;8.558;2022-10-16T12:48:20;100486.56;;;23.94;80.63
44457;BME280;30159;49.316;8.558;2022-10-16T12:50:47;100480.59;;;23.92;79.66
44457;BME280;30159;49.316;8.558;2022-10-16T12:53:18;100479.34;;;24.12;78.47
44457;BME280;30159;49.316;8.558;2022-10-16T12:55:52;100442.16;;;23.99;78.47
44457;BME280;30159;49.316;8.558;2022-10-16T12:58:47;100489.34;;;24.21;79.39
44457;BME280;30159;49.316;8.558;2022-10-16T13:01:29;100489.56;;;24.12;79.63
44457;BME280;30159;49.316;8.558;2022-10-16T13:04:13;100492.06;;;23.94;80.72
44457;BME280;30159;49.316;8.558;2022-10-16T13:06:50;100494.19;;;24.04;80.81
44457;BME280;30159;49.316;8.558;2022-10-16T13:09:35;100496.59;;;24.06;81.76
44457;BME280;30159;49.316;8.558;2022-10-16T13:12:14;100448.31;;;23.69;81.93
44457;BME280;30159;49.316;8.558;2022-10-16T13:15:16;100509.94;;;24.04;80.46
44457;BME280;30159;49.316;8.558;2022-10-16T13:17:53;100521.63;;;23.97;80.56
44457;BME280;30159;49.316;8.558;2022-10-16T13:20:30;100511.63;;;23.89;81.65
44457;BME280;30159;49.316;8.558;2022-10-16T13:23:06;100524.41;;;23.77;80.89
44457;BME280;30159;49.316;8.558;2022-10-16T13:25:45;100519.19;;;23.72;81.56
44457;BME280;30159;49.316;8.558;2022-10-16T13:28:21;100520.53;;;23.59;82.53
44457;BME280;30159;49.316;8.558;2022-10-16T13:30:52;100519.53;;;23.28;83.77
44457;BME280;30159;49.316;8.558;2022-10-16T13:33:21;100525.16;;;22.97;84.88
44457;BME280;30159;49.316;8.558;2022-10-16T13:35:53;100523.03;;;22.90;85.11
44457;BME280;30159;49.316;8.558;2022-10-16T13:38:21;100515.56;;;22.71;86.01
44457;BME280;30159;49.316;8.558;2022-10-16T13:40:54;100513.25;;;22.73;86.20
44457;BME280;30159;49.316;8.558;2022-10-16T13:43:24;100512.69;;;22.67;85.47
44457;BME280;30159;49.316;8.558;2022-10-16T13:45:54;100509.16;;;22.67;84.87
44457;BME280;30159;49.316;8.558;2022-10-16T13:48:20;100515.69;;;22.78;84.37
44457;BME280;30159;49.316;8.558;2022-10-16T13:50:59;100518.59;;;22.85;84.21
44457;BME280;30159;49.316;8.558;2022-10-16T13:53:26;100474.41;;;22.59;84.12
44457;BME280;30159;49.316;8.558;2022-10-16T13:55:52;100507.50;;;22.82;84.03
44457;BME280;30159;49.316;8.558;2022-10-16T13:58:19;100501.06;;;22.74;84.19
44457;BME280;30159;49.316;8.558;2022-10-16T14:00:54;100508.00;;;22.68;85.70
44457;BME280;30159;49.316;8.558;2022-10-16T14:03:21;100503.94;;;22.62;85.45
44457;BME280;30159;49.316;8.558;2022-10-16T14:05:50;100498.03;;;22.44;86.59
44457;BME280;30159;49.316;8.558;2022-10-16T14:08:19;100494.22;;;22.48;87.94
44457;BME280;30159;49.316;8.558;2022-10-16T14:10:48;100501.13;;;22.42;89.61
44457;BME280;30159;49.316;8.558;2022-10-16T14:13:18;100502.41;;;22.29;91.59
44457;BME280;30159;49.316;8.558;2022-10-16T14:15:47;100469.84;;;21.83;92.58
44457;BME280;30159;49.316;8.558;2022-10-16T14:18:19;100514.44;;;22.08;93.52